Rio, Wisconsin
Current Conditions -  °F | °C
As of 5:53 AM on Saturday 25 Oct 2014 (Local Time) from KMSN Reporting Station
Haze Haze  
Wind Chill: 56°   Ceiling: Unl
Heat Index: 56°   Visibility: 6mi
Dew Point: 53°   Wind: 7mph
Humidity: 90%   Direction: NA
Pressure: 29.9"   Gusts: NA
Location:  43.45°N, 89.24°W
Report Text: KMSN 251053Z VRB06KT 6SM BR CLR 13/12 A2990 RMK AO2 SLP124 FIRST AUGMENTED OF THE DAY T01330117
Loading
Personal Weather Stations






























Interactive Weather Map
Tropical Storm Tracking
New forecast layout! Learn more

10-Day Weather Forecast

Advertisements
Track Severe Weather on mobile